Time;durP1;ratioP1;P1;durP2;ratioP2;P2;SDS_P1;SDS_P2;PMS_P1;PMS_P2;Temp;Humidity;BMP_temperature;BMP_pressure;BME280_temperature;BME280_humidity;BME280_pressure;Samples;Min_cycle;Max_cycle;Signal;HPM_P1;HPM_P2
2022/11/27 00:02:24;;;;;;;1.37;0.75;;;;;;;;;;1784531;80;26783;-64
2022/11/27 00:04:51;;;;;;;1.57;0.93;;;;;;;;;;1784579;79;26756;-62
2022/11/27 00:07:18;;;;;;;0.90;0.90;;;;;;;;;;1789653;79;26749;-63
2022/11/27 00:09:45;;;;;;;1.00;1.00;;;;;;;;;;1784773;79;26733;-63
2022/11/27 00:12:13;;;;;;;1.22;1.00;;;;;;;;;;1784556;80;26216;-61
2022/11/27 00:14:40;;;;;;;1.77;1.10;;;;;;;;;;1786875;79;26675;-62
2022/11/27 00:17:07;;;;;;;1.35;1.00;;;;;;;;;;1787189;79;26365;-63
2022/11/27 00:19:34;;;;;;;1.20;1.20;;;;;;;;;;1787562;79;26367;-63
2022/11/27 00:22:02;;;;;;;1.20;1.10;;;;;;;;;;1784935;79;26400;-63
2022/11/27 00:24:29;;;;;;;1.70;1.20;;;;;;;;;;1784803;79;26303;-64
2022/11/27 00:26:56;;;;;;;1.00;1.00;;;;;;;;;;1784040;79;27475;-62
2022/11/27 00:29:27;;;;;;;0.90;0.90;;;;;;;;;;1783843;79;26279;-63
2022/11/27 00:31:53;;;;;;;1.20;1.20;;;;;;;;;;1788281;79;26583;-63
2022/11/27 00:34:20;;;;;;;2.12;1.17;;;;;;;;;;1799769;79;26350;-63
2022/11/27 00:36:47;;;;;;;0.90;0.90;;;;;;;;;;1799372;79;26277;-63
2022/11/27 00:39:14;;;;;;;0.90;0.90;;;;;;;;;;1790271;79;26355;-63
2022/11/27 00:41:42;;;;;;;0.88;0.88;;;;;;;;;;1796894;79;26296;-62
2022/11/27 00:44:09;;;;;;;1.15;1.05;;;;;;;;;;1788837;79;26342;-64
2022/11/27 00:46:36;;;;;;;1.10;1.10;;;;;;;;;;1789112;79;26291;-63
2022/11/27 00:49:04;;;;;;;1.00;1.00;;;;;;;;;;1797275;79;26593;-63
2022/11/27 00:51:32;;;;;;;0.90;0.90;;;;;;;;;;1783729;79;26303;-61
2022/11/27 00:53:59;;;;;;;0.90;0.90;;;;;;;;;;1784082;79;26902;-63
2022/11/27 00:56:28;;;;;;;0.82;0.82;;;;;;;;;;1783923;79;26306;-63
2022/11/27 00:58:55;;;;;;;2.25;0.80;;;;;;;;;;1783832;79;26897;-63
2022/11/27 01:01:24;;;;;;;3.22;1.00;;;;;;;;;;1783937;79;26365;-63
2022/11/27 01:03:52;;;;;;;1.32;0.80;;;;;;;;;;1786019;79;26676;-63
2022/11/27 01:06:20;;;;;;;1.00;0.80;;;;;;;;;;1770616;79;26372;-63
2022/11/27 01:08:48;;;;;;;0.90;0.90;;;;;;;;;;1783643;79;26316;-64
2022/11/27 01:11:17;;;;;;;0.90;0.90;;;;;;;;;;1791513;79;26630;-61
2022/11/27 01:13:44;;;;;;;0.98;0.98;;;;;;;;;;1793669;79;26702;-63
2022/11/27 01:16:13;;;;;;;1.37;0.70;;;;;;;;;;1787965;79;26402;-63
2022/11/27 01:18:42;;;;;;;0.80;0.80;;;;;;;;;;1783975;79;26293;-62
2022/11/27 01:21:10;;;;;;;0.80;0.80;;;;;;;;;;1790540;79;26264;-63
2022/11/27 01:23:37;;;;;;;0.60;0.60;;;;;;;;;;1797371;79;26331;-62
2022/11/27 01:26:06;;;;;;;0.70;0.70;;;;;;;;;;1784372;79;26447;-62
2022/11/27 01:28:34;;;;;;;0.80;0.80;;;;;;;;;;1780899;79;26764;-61
2022/11/27 01:31:05;;;;;;;0.72;0.70;;;;;;;;;;1770956;79;26304;-62
2022/11/27 01:33:33;;;;;;;0.70;0.70;;;;;;;;;;1757632;79;26286;-61
2022/11/27 01:36:01;;;;;;;0.70;0.70;;;;;;;;;;1758139;79;26285;-61
2022/11/27 01:38:30;;;;;;;0.60;0.60;;;;;;;;;;1777083;79;26295;-61
2022/11/27 01:41:05;;;;;;;0.70;0.70;;;;;;;;;;1786794;79;26874;-62
2022/11/27 01:43:36;;;;;;;0.65;0.65;;;;;;;;;;1782979;79;27349;-62
2022/11/27 01:46:04;;;;;;;0.72;0.70;;;;;;;;;;1783197;79;26929;-64
2022/11/27 01:48:32;;;;;;;0.60;0.60;;;;;;;;;;1784688;79;26288;-62
2022/11/27 01:50:59;;;;;;;0.95;0.65;;;;;;;;;;1784143;79;26291;-64
2022/11/27 01:53:26;;;;;;;0.60;0.60;;;;;;;;;;1784855;79;26350;-62
2022/11/27 01:55:55;;;;;;;0.70;0.70;;;;;;;;;;1784768;79;27401;-63
2022/11/27 01:58:24;;;;;;;0.65;0.57;;;;;;;;;;1784652;79;26848;-63
2022/11/27 02:00:51;;;;;;;0.70;0.70;;;;;;;;;;1783030;79;27480;-63
2022/11/27 02:03:19;;;;;;;2.22;0.70;;;;;;;;;;1784846;79;26296;-63
2022/11/27 02:05:46;;;;;;;0.60;0.60;;;;;;;;;;1784556;79;26824;-63
2022/11/27 02:08:15;;;;;;;0.65;0.55;;;;;;;;;;1784806;79;27366;-63
2022/11/27 02:11:00;;;;;;;0.60;0.60;;;;;;;;;;1784539;79;26337;-63
2022/11/27 02:13:35;;;;;;;0.62;0.60;;;;;;;;;;1781906;79;26275;-60
2022/11/27 02:16:10;;;;;;;0.68;0.60;;;;;;;;;;1784448;80;26341;-61
2022/11/27 02:18:41;;;;;;;0.50;0.50;;;;;;;;;;1781230;80;26337;-63
2022/11/27 02:21:10;;;;;;;0.60;0.60;;;;;;;;;;1784863;79;25830;-62
2022/11/27 02:23:48;;;;;;;0.50;0.50;;;;;;;;;;1757350;79;26731;-63
2022/11/27 02:26:19;;;;;;;0.60;0.60;;;;;;;;;;1788271;79;26264;-62
2022/11/27 02:28:51;;;;;;;0.60;0.60;;;;;;;;;;1773719;80;26766;-63
2022/11/27 02:31:19;;;;;;;0.50;0.50;;;;;;;;;;1775840;79;26364;-63
2022/11/27 02:33:49;;;;;;;0.53;0.53;;;;;;;;;;1757115;79;26363;-64
2022/11/27 02:36:18;;;;;;;0.60;0.60;;;;;;;;;;1778089;79;26410;-63
2022/11/27 02:38:46;;;;;;;0.50;0.50;;;;;;;;;;1783716;79;26382;-63
2022/11/27 02:41:15;;;;;;;0.55;0.55;;;;;;;;;;1784699;79;26282;-64
2022/11/27 02:43:44;;;;;;;0.60;0.60;;;;;;;;;;1769709;79;26349;-64
2022/11/27 02:46:12;;;;;;;1.22;0.40;;;;;;;;;;1781089;79;26353;-63
2022/11/27 02:48:41;;;;;;;0.70;0.70;;;;;;;;;;1789678;79;26267;-62
2022/11/27 02:51:09;;;;;;;0.50;0.50;;;;;;;;;;1785524;79;26334;-64
2022/11/27 02:53:42;;;;;;;0.62;0.50;;;;;;;;;;1768412;79;26710;-63
2022/11/27 02:56:11;;;;;;;0.50;0.50;;;;;;;;;;1825156;74;26359;-61
2022/11/27 02:58:38;;;;;;;0.50;0.50;;;;;;;;;;1828636;77;26339;-61
2022/11/27 03:01:06;;;;;;;0.62;0.62;;;;;;;;;;1832071;77;27479;-61
2022/11/27 03:03:35;;;;;;;0.53;0.53;;;;;;;;;;1826098;78;26337;-60
2022/11/27 03:06:04;;;;;;;0.72;0.62;;;;;;;;;;1830158;78;26257;-62
2022/11/27 03:08:49;;;;;;;0.50;0.50;;;;;;;;;;1830530;78;26302;-61
2022/11/27 03:11:17;;;;;;;0.60;0.60;;;;;;;;;;1832255;77;26795;-61
2022/11/27 03:13:45;;;;;;;0.40;0.40;;;;;;;;;;1832799;78;26261;-61
2022/11/27 03:16:20;;;;;;;0.50;0.50;;;;;;;;;;1826448;78;26273;-61
2022/11/27 03:19:07;;;;;;;0.53;0.53;;;;;;;;;;1825266;77;26354;-62
2022/11/27 03:21:35;;;;;;;0.40;0.40;;;;;;;;;;1834133;78;26272;-60
2022/11/27 03:24:03;;;;;;;0.50;0.50;;;;;;;;;;1822999;77;26284;-61
2022/11/27 03:26:31;;;;;;;0.50;0.50;;;;;;;;;;1805555;78;26280;-63
2022/11/27 03:28:59;;;;;;;0.40;0.40;;;;;;;;;;1818635;78;26348;-62
2022/11/27 03:31:27;;;;;;;0.50;0.50;;;;;;;;;;1830630;78;26681;-62
2022/11/27 03:33:55;;;;;;;0.55;0.55;;;;;;;;;;1813472;77;26351;-63
2022/11/27 03:36:22;;;;;;;0.50;0.50;;;;;;;;;;1807558;78;27298;-62
2022/11/27 03:38:51;;;;;;;0.57;0.57;;;;;;;;;;1830941;77;26825;-63
2022/11/27 03:41:20;;;;;;;1.10;0.50;;;;;;;;;;1834543;77;26342;-63
2022/11/27 03:43:54;;;;;;;0.60;0.60;;;;;;;;;;1809300;77;26282;-59
2022/11/27 03:46:32;;;;;;;0.47;0.47;;;;;;;;;;1824167;77;26268;-63
2022/11/27 03:49:01;;;;;;;0.50;0.50;;;;;;;;;;1821703;75;26327;-61
2022/11/27 03:51:30;;;;;;;0.60;0.60;;;;;;;;;;1823141;77;26224;-61
2022/11/27 03:53:59;;;;;;;0.50;0.50;;;;;;;;;;1838261;77;26268;-62
2022/11/27 03:56:27;;;;;;;0.55;0.55;;;;;;;;;;1822741;76;26716;-62
2022/11/27 03:58:56;;;;;;;0.40;0.40;;;;;;;;;;1843228;76;26351;-62
2022/11/27 04:01:25;;;;;;;0.60;0.60;;;;;;;;;;1830693;76;26337;-63
2022/11/27 04:03:52;;;;;;;0.53;0.53;;;;;;;;;;1837604;77;26577;-62
2022/11/27 04:06:19;;;;;;;0.60;0.60;;;;;;;;;;1845657;76;26684;-62
2022/11/27 04:08:47;;;;;;;0.42;0.42;;;;;;;;;;1839073;76;26300;-60
2022/11/27 04:11:15;;;;;;;0.60;0.60;;;;;;;;;;1816850;77;26755;-61
2022/11/27 04:13:42;;;;;;;0.35;0.35;;;;;;;;;;1842586;76;26413;-60
2022/11/27 04:16:09;;;;;;;0.60;0.60;;;;;;;;;;1822137;77;26575;-63
2022/11/27 04:18:37;;;;;;;0.50;0.50;;;;;;;;;;1841903;77;26646;-61
2022/11/27 04:21:04;;;;;;;0.40;0.40;;;;;;;;;;1843370;76;26276;-62
2022/11/27 04:23:31;;;;;;;0.60;0.60;;;;;;;;;;1840414;77;26767;-60
2022/11/27 04:25:59;;;;;;;0.40;0.40;;;;;;;;;;1832793;77;26289;-59
2022/11/27 04:28:26;;;;;;;0.60;0.60;;;;;;;;;;1839561;77;26223;-61
2022/11/27 04:30:54;;;;;;;0.50;0.50;;;;;;;;;;1832462;76;26292;-61
2022/11/27 04:33:22;;;;;;;0.57;0.57;;;;;;;;;;1839043;77;26736;-62
2022/11/27 04:35:51;;;;;;;0.55;0.55;;;;;;;;;;1834569;77;26248;-62
2022/11/27 04:38:18;;;;;;;0.47;0.47;;;;;;;;;;1825526;77;26299;-61
2022/11/27 04:40:46;;;;;;;0.50;0.50;;;;;;;;;;1837370;77;26732;-61
2022/11/27 04:43:13;;;;;;;0.50;0.50;;;;;;;;;;1839916;76;26286;-61
2022/11/27 04:45:42;;;;;;;0.60;0.60;;;;;;;;;;1836930;77;26238;-61
2022/11/27 04:48:09;;;;;;;0.50;0.50;;;;;;;;;;1813018;78;26307;-62
2022/11/27 04:50:37;;;;;;;0.60;0.60;;;;;;;;;;1806967;78;26775;-60
2022/11/27 04:53:04;;;;;;;0.60;0.60;;;;;;;;;;1817136;78;26322;-62
2022/11/27 04:55:31;;;;;;;0.40;0.40;;;;;;;;;;1826730;76;26336;-61
2022/11/27 04:57:59;;;;;;;0.60;0.60;;;;;;;;;;1816991;78;26335;-61
2022/11/27 05:00:26;;;;;;;0.60;0.60;;;;;;;;;;1815948;78;26307;-62
2022/11/27 05:02:54;;;;;;;0.60;0.60;;;;;;;;;;1821834;78;26268;-62
2022/11/27 05:05:21;;;;;;;0.60;0.60;;;;;;;;;;1810509;76;26324;-59
2022/11/27 05:07:48;;;;;;;0.50;0.50;;;;;;;;;;1835687;76;26840;-62
2022/11/27 05:10:15;;;;;;;0.60;0.60;;;;;;;;;;1835479;78;26261;-61
2022/11/27 05:12:43;;;;;;;0.53;0.53;;;;;;;;;;1835701;78;26342;-61
2022/11/27 05:15:10;;;;;;;0.45;0.45;;;;;;;;;;1828883;76;26256;-61
2022/11/27 05:17:37;;;;;;;0.60;0.60;;;;;;;;;;1818737;76;26249;-61
2022/11/27 05:20:05;;;;;;;0.50;0.50;;;;;;;;;;1806643;78;26275;-61
2022/11/27 05:22:32;;;;;;;0.50;0.50;;;;;;;;;;1833272;78;26792;-62
2022/11/27 05:25:00;;;;;;;0.47;0.47;;;;;;;;;;1831446;78;25754;-61
2022/11/27 05:27:27;;;;;;;0.50;0.50;;;;;;;;;;1833426;78;26704;-62
2022/11/27 05:29:54;;;;;;;0.50;0.50;;;;;;;;;;1839631;76;26827;-62
2022/11/27 05:32:36;;;;;;;0.50;0.50;;;;;;;;;;1821470;78;26651;-62
2022/11/27 05:35:03;;;;;;;0.60;0.60;;;;;;;;;;1803350;78;26394;-62
2022/11/27 05:37:31;;;;;;;0.55;0.55;;;;;;;;;;1802068;79;26276;-60
2022/11/27 05:39:58;;;;;;;0.50;0.50;;;;;;;;;;1799432;78;26887;-60
2022/11/27 05:42:25;;;;;;;0.60;0.60;;;;;;;;;;1802250;78;26267;-60
2022/11/27 05:44:53;;;;;;;0.42;0.42;;;;;;;;;;1802214;78;26263;-61
2022/11/27 05:47:20;;;;;;;0.65;0.65;;;;;;;;;;1803343;78;26288;-61
2022/11/27 05:49:47;;;;;;;0.50;0.50;;;;;;;;;;1795709;79;26409;-61
2022/11/27 05:52:15;;;;;;;0.60;0.60;;;;;;;;;;1801451;78;26255;-61
2022/11/27 05:54:42;;;;;;;0.60;0.60;;;;;;;;;;1801619;79;26283;-61
2022/11/27 05:57:09;;;;;;;0.45;0.45;;;;;;;;;;1802011;79;26268;-63
2022/11/27 05:59:36;;;;;;;0.50;0.50;;;;;;;;;;1801546;79;26346;-62
2022/11/27 06:02:04;;;;;;;0.50;0.50;;;;;;;;;;1802893;78;26275;-62
2022/11/27 06:04:33;;;;;;;0.47;0.47;;;;;;;;;;1803851;78;26288;-62
2022/11/27 06:07:00;;;;;;;0.60;0.60;;;;;;;;;;1801711;78;26663;-62
2022/11/27 06:09:28;;;;;;;0.40;0.40;;;;;;;;;;1799725;78;26373;-62
2022/11/27 06:11:55;;;;;;;0.62;0.62;;;;;;;;;;1808663;78;26318;-62
2022/11/27 06:14:22;;;;;;;0.55;0.55;;;;;;;;;;1813139;78;26294;-62
2022/11/27 06:16:50;;;;;;;0.62;0.62;;;;;;;;;;1804944;78;26385;-62
2022/11/27 06:19:17;;;;;;;0.65;0.60;;;;;;;;;;1791689;78;26374;-61
2022/11/27 06:21:45;;;;;;;0.50;0.50;;;;;;;;;;1797130;79;26281;-62
2022/11/27 06:24:12;;;;;;;0.55;0.55;;;;;;;;;;1803824;78;26276;-61
2022/11/27 06:26:40;;;;;;;0.50;0.50;;;;;;;;;;1800018;78;26256;-61
2022/11/27 06:29:07;;;;;;;0.50;0.50;;;;;;;;;;1803756;78;26280;-61
2022/11/27 06:31:34;;;;;;;0.60;0.60;;;;;;;;;;1807039;78;27431;-61
2022/11/27 06:34:03;;;;;;;0.40;0.40;;;;;;;;;;1828162;78;26328;-62
2022/11/27 06:36:34;;;;;;;0.55;0.55;;;;;;;;;;1811577;78;26264;-62
2022/11/27 06:39:03;;;;;;;0.50;0.50;;;;;;;;;;1815332;75;27441;-62
2022/11/27 06:41:30;;;;;;;0.50;0.50;;;;;;;;;;1809818;78;26282;-60
2022/11/27 06:43:58;;;;;;;0.50;0.50;;;;;;;;;;1820774;78;26295;-62
2022/11/27 06:46:26;;;;;;;0.72;0.62;;;;;;;;;;1829061;78;26206;-62
2022/11/27 06:48:54;;;;;;;0.60;0.60;;;;;;;;;;1829659;78;26300;-59
2022/11/27 06:51:23;;;;;;;0.60;0.60;;;;;;;;;;1824084;77;26734;-62
2022/11/27 06:53:51;;;;;;;0.50;0.50;;;;;;;;;;1829109;78;26305;-61
2022/11/27 06:56:20;;;;;;;0.68;0.60;;;;;;;;;;1822486;78;26198;-61
2022/11/27 06:58:48;;;;;;;0.45;0.40;;;;;;;;;;1823488;78;26288;-62
2022/11/27 07:01:17;;;;;;;0.53;0.53;;;;;;;;;;1824167;77;26282;-63
2022/11/27 07:03:44;;;;;;;0.60;0.60;;;;;;;;;;1832517;74;26328;-61
2022/11/27 07:06:14;;;;;;;0.55;0.55;;;;;;;;;;1827895;78;26372;-62
2022/11/27 07:08:41;;;;;;;3.10;0.60;;;;;;;;;;1817532;78;26317;-61
2022/11/27 07:11:14;;;;;;;2.17;0.57;;;;;;;;;;1830214;78;26370;-62
2022/11/27 07:13:41;;;;;;;1.07;0.60;;;;;;;;;;1829399;78;26320;-60
2022/11/27 07:16:10;;;;;;;0.60;0.60;;;;;;;;;;1828173;78;26249;-64
2022/11/27 07:18:38;;;;;;;0.50;0.50;;;;;;;;;;1823228;78;26335;-63
2022/11/27 07:21:05;;;;;;;2.08;0.72;;;;;;;;;;1824643;78;26312;-63
2022/11/27 07:23:33;;;;;;;0.95;0.60;;;;;;;;;;1829852;78;26268;-62
2022/11/27 07:26:02;;;;;;;2.27;0.60;;;;;;;;;;1826918;78;26241;-62
2022/11/27 07:28:29;;;;;;;0.70;0.70;;;;;;;;;;1827448;78;26645;-63
2022/11/27 07:30:57;;;;;;;0.60;0.60;;;;;;;;;;1829619;78;26264;-62
2022/11/27 07:33:24;;;;;;;0.62;0.62;;;;;;;;;;1826706;78;26201;-62
2022/11/27 07:35:59;;;;;;;0.60;0.60;;;;;;;;;;1829386;78;26253;-60
2022/11/27 07:38:26;;;;;;;1.37;0.70;;;;;;;;;;1828012;78;26279;-61
2022/11/27 07:40:53;;;;;;;1.42;0.70;;;;;;;;;;1835984;77;26745;-62
2022/11/27 07:43:21;;;;;;;0.60;0.60;;;;;;;;;;1825498;78;26331;-62
2022/11/27 07:45:48;;;;;;;2.15;0.60;;;;;;;;;;1821623;78;26402;-62
2022/11/27 07:48:15;;;;;;;0.60;0.60;;;;;;;;;;1826532;77;26213;-63
2022/11/27 07:50:42;;;;;;;1.80;0.72;;;;;;;;;;1826143;77;26295;-62
2022/11/27 07:53:10;;;;;;;1.82;0.65;;;;;;;;;;1826294;77;26730;-62
2022/11/27 07:55:38;;;;;;;2.02;0.70;;;;;;;;;;1827977;78;26202;-62
2022/11/27 07:58:06;;;;;;;1.05;0.60;;;;;;;;;;1811409;78;26641;-59
2022/11/27 08:00:34;;;;;;;0.70;0.70;;;;;;;;;;1830180;78;26332;-59
2022/11/27 08:03:02;;;;;;;0.70;0.70;;;;;;;;;;1828950;77;26351;-59
2022/11/27 08:05:29;;;;;;;0.50;0.50;;;;;;;;;;1828672;78;26359;-59
2022/11/27 08:07:58;;;;;;;0.60;0.60;;;;;;;;;;1830107;78;26832;-59
2022/11/27 08:10:25;;;;;;;2.22;0.90;;;;;;;;;;1829802;78;26821;-59
2022/11/27 08:12:52;;;;;;;1.05;0.80;;;;;;;;;;1830290;78;27412;-59
2022/11/27 08:15:31;;;;;;;0.70;0.70;;;;;;;;;;1822262;78;26698;-59
2022/11/27 08:17:58;;;;;;;1.55;0.70;;;;;;;;;;1762511;79;27359;-59
2022/11/27 08:20:25;;;;;;;0.70;0.70;;;;;;;;;;1769935;79;26363;-59
2022/11/27 08:22:53;;;;;;;2.37;0.60;;;;;;;;;;1756279;79;26289;-61
2022/11/27 08:25:20;;;;;;;1.07;0.80;;;;;;;;;;1773093;79;26343;-61
2022/11/27 08:27:48;;;;;;;0.60;0.60;;;;;;;;;;1773580;79;26269;-60
2022/11/27 08:30:15;;;;;;;2.08;0.78;;;;;;;;;;1773457;79;26598;-60
2022/11/27 08:32:47;;;;;;;1.45;0.80;;;;;;;;;;1754247;79;26859;-61
2022/11/27 08:35:14;;;;;;;2.33;0.70;;;;;;;;;;1749730;79;26988;-61
2022/11/27 08:37:41;;;;;;;0.90;0.80;;;;;;;;;;1761021;79;26292;-58
2022/11/27 08:40:09;;;;;;;1.75;0.70;;;;;;;;;;1758309;79;26383;-59
2022/11/27 08:42:36;;;;;;;1.62;0.82;;;;;;;;;;1768130;79;26240;-61
2022/11/27 08:45:04;;;;;;;1.60;0.70;;;;;;;;;;1761076;79;27361;-60
2022/11/27 08:47:31;;;;;;;1.47;1.00;;;;;;;;;;1767831;79;26306;-60
2022/11/27 08:49:59;;;;;;;0.90;0.90;;;;;;;;;;1785632;79;26346;-60
2022/11/27 08:52:26;;;;;;;1.37;0.90;;;;;;;;;;1769437;79;26261;-60
2022/11/27 08:54:53;;;;;;;1.82;0.98;;;;;;;;;;1763631;79;26300;-60
2022/11/27 08:57:20;;;;;;;1.67;1.00;;;;;;;;;;1748574;79;26276;-60
2022/11/27 08:59:49;;;;;;;1.07;0.95;;;;;;;;;;1770588;79;26268;-60
2022/11/27 09:02:16;;;;;;;1.37;1.00;;;;;;;;;;1775458;79;26777;-60
2022/11/27 09:04:44;;;;;;;0.80;0.80;;;;;;;;;;1772603;79;26741;-59
2022/11/27 09:07:13;;;;;;;0.90;0.90;;;;;;;;;;1761643;79;26844;-60
2022/11/27 09:09:40;;;;;;;1.82;0.82;;;;;;;;;;1768382;79;26290;-59
2022/11/27 09:12:07;;;;;;;0.88;0.80;;;;;;;;;;1769045;79;26319;-60
2022/11/27 09:14:35;;;;;;;1.00;1.00;;;;;;;;;;1767997;79;26332;-59
2022/11/27 09:17:02;;;;;;;1.80;0.90;;;;;;;;;;1770220;79;26836;-60
2022/11/27 09:19:29;;;;;;;0.78;0.78;;;;;;;;;;1763583;79;26307;-60
2022/11/27 09:21:56;;;;;;;0.82;0.82;;;;;;;;;;1773536;79;26261;-60
2022/11/27 09:24:24;;;;;;;0.90;0.90;;;;;;;;;;1773525;79;26308;-60
2022/11/27 09:26:51;;;;;;;0.90;0.90;;;;;;;;;;1799542;79;26270;-60
2022/11/27 09:29:18;;;;;;;0.88;0.88;;;;;;;;;;1778089;79;26272;-60
2022/11/27 09:31:46;;;;;;;0.70;0.70;;;;;;;;;;1770247;79;26360;-60
2022/11/27 09:34:13;;;;;;;0.90;0.90;;;;;;;;;;1759287;79;26876;-60
2022/11/27 09:36:41;;;;;;;0.82;0.82;;;;;;;;;;1755613;79;26280;-60
2022/11/27 09:39:08;;;;;;;0.80;0.68;;;;;;;;;;1758668;79;26307;-59
2022/11/27 09:41:43;;;;;;;1.12;0.80;;;;;;;;;;1769509;79;26268;-59
2022/11/27 09:44:23;;;;;;;0.80;0.80;;;;;;;;;;1756551;79;27301;-61
2022/11/27 09:46:53;;;;;;;1.07;1.00;;;;;;;;;;1767047;79;26267;-59
2022/11/27 09:49:31;;;;;;;0.70;0.70;;;;;;;;;;1762574;79;26579;-60
2022/11/27 09:51:59;;;;;;;0.85;0.85;;;;;;;;;;1746882;80;26303;-61
2022/11/27 09:54:43;;;;;;;1.12;0.90;;;;;;;;;;1748476;79;26270;-60
2022/11/27 09:57:12;;;;;;;0.80;0.80;;;;;;;;;;1760342;79;26260;-62
2022/11/27 09:59:41;;;;;;;0.80;0.80;;;;;;;;;;1764101;79;26298;-61
2022/11/27 10:02:16;;;;;;;0.70;0.70;;;;;;;;;;1766154;79;26221;-60
2022/11/27 10:04:44;;;;;;;0.70;0.70;;;;;;;;;;1758609;79;26328;-61
2022/11/27 10:07:25;;;;;;;0.75;0.70;;;;;;;;;;1769960;79;26637;-59
2022/11/27 10:09:53;;;;;;;0.82;0.80;;;;;;;;;;1771544;79;26280;-62
2022/11/27 10:12:29;;;;;;;0.60;0.60;;;;;;;;;;1789556;79;26271;-61
2022/11/27 10:15:14;;;;;;;0.70;0.70;;;;;;;;;;1765045;79;26799;-60
2022/11/27 10:18:02;;;;;;;0.95;0.80;;;;;;;;;;1746942;79;26312;-60
2022/11/27 10:20:33;;;;;;;0.65;0.65;;;;;;;;;;1774687;79;26776;-62
2022/11/27 10:23:05;;;;;;;0.62;0.62;;;;;;;;;;1771993;79;26926;-61
2022/11/27 10:25:40;;;;;;;0.60;0.60;;;;;;;;;;1754306;79;26287;-60
2022/11/27 10:28:12;;;;;;;0.70;0.70;;;;;;;;;;1769203;79;26229;-60
2022/11/27 10:30:41;;;;;;;0.70;0.70;;;;;;;;;;1782501;79;26668;-60
2022/11/27 10:33:10;;;;;;;0.60;0.60;;;;;;;;;;1762805;79;26707;-63
2022/11/27 10:35:37;;;;;;;0.70;0.70;;;;;;;;;;1780495;79;27368;-60
2022/11/27 10:38:06;;;;;;;0.70;0.70;;;;;;;;;;1780932;79;26335;-60
2022/11/27 10:40:35;;;;;;;0.60;0.60;;;;;;;;;;1773228;79;26279;-60
2022/11/27 10:43:12;;;;;;;0.68;0.68;;;;;;;;;;1783141;79;26341;-60
2022/11/27 10:45:47;;;;;;;0.65;0.65;;;;;;;;;;1783428;79;26892;-60
2022/11/27 10:48:15;;;;;;;0.70;0.70;;;;;;;;;;1765214;79;26278;-60
2022/11/27 10:50:44;;;;;;;0.60;0.60;;;;;;;;;;1776713;79;26343;-60
2022/11/27 10:53:13;;;;;;;0.60;0.60;;;;;;;;;;1782565;79;26306;-60
2022/11/27 10:55:59;;;;;;;0.70;0.70;;;;;;;;;;1783957;79;26270;-59
2022/11/27 10:58:33;;;;;;;0.60;0.60;;;;;;;;;;1782794;79;26318;-60
2022/11/27 11:01:05;;;;;;;0.45;0.45;;;;;;;;;;1760388;79;26270;-60
2022/11/27 11:03:33;;;;;;;0.70;0.70;;;;;;;;;;1761209;79;26674;-60
2022/11/27 11:06:04;;;;;;;0.60;0.60;;;;;;;;;;1781088;79;26276;-60
2022/11/27 11:08:31;;;;;;;0.70;0.70;;;;;;;;;;1781958;79;26833;-60
2022/11/27 11:11:00;;;;;;;0.60;0.60;;;;;;;;;;1782535;79;26256;-60
2022/11/27 11:13:29;;;;;;;0.60;0.60;;;;;;;;;;1791165;79;26272;-60
2022/11/27 11:15:58;;;;;;;0.60;0.60;;;;;;;;;;1782925;79;26251;-60
2022/11/27 11:18:27;;;;;;;0.70;0.70;;;;;;;;;;1778144;79;26355;-60
2022/11/27 11:20:55;;;;;;;0.60;0.60;;;;;;;;;;1782428;79;26800;-60
2022/11/27 11:23:27;;;;;;;0.50;0.50;;;;;;;;;;1801346;79;26526;-60
2022/11/27 11:25:56;;;;;;;0.55;0.55;;;;;;;;;;1773191;79;26756;-61
2022/11/27 11:28:27;;;;;;;0.57;0.57;;;;;;;;;;1782801;79;26324;-60
2022/11/27 11:31:00;;;;;;;0.60;0.60;;;;;;;;;;1780950;79;26351;-61
2022/11/27 11:33:27;;;;;;;0.60;0.60;;;;;;;;;;1781469;79;26302;-61
2022/11/27 11:35:55;;;;;;;0.50;0.50;;;;;;;;;;1778948;79;26775;-61
2022/11/27 11:38:30;;;;;;;0.50;0.50;;;;;;;;;;1765497;79;26337;-60
2022/11/27 11:40:59;;;;;;;0.50;0.50;;;;;;;;;;1786520;79;26300;-61
2022/11/27 11:43:31;;;;;;;0.50;0.50;;;;;;;;;;1792655;79;27426;-60
2022/11/27 11:46:07;;;;;;;0.60;0.60;;;;;;;;;;1772552;79;26305;-62
2022/11/27 11:48:35;;;;;;;0.50;0.50;;;;;;;;;;1796872;79;26228;-61
2022/11/27 11:51:04;;;;;;;0.60;0.60;;;;;;;;;;1782859;79;26603;-60
2022/11/27 11:53:44;;;;;;;0.53;0.53;;;;;;;;;;1767443;79;26671;-61
2022/11/27 11:56:25;;;;;;;0.60;0.60;;;;;;;;;;1779465;79;26351;-60
2022/11/27 11:58:54;;;;;;;0.60;0.60;;;;;;;;;;1782334;79;26819;-61
2022/11/27 12:01:25;;;;;;;0.65;0.65;;;;;;;;;;1782304;79;26332;-61
2022/11/27 12:04:11;;;;;;;0.53;0.53;;;;;;;;;;1784783;79;26368;-58
2022/11/27 12:06:40;;;;;;;0.60;0.60;;;;;;;;;;1780921;79;26328;-60
2022/11/27 12:09:15;;;;;;;0.45;0.45;;;;;;;;;;1774377;79;26320;-60
2022/11/27 12:11:46;;;;;;;0.40;0.40;;;;;;;;;;1781974;79;26264;-60
2022/11/27 12:14:18;;;;;;;0.40;0.40;;;;;;;;;;1781839;79;26355;-60
2022/11/27 12:17:05;;;;;;;0.40;0.40;;;;;;;;;;1787940;79;26312;-60
2022/11/27 12:19:37;;;;;;;0.40;0.40;;;;;;;;;;1776295;79;26347;-59
2022/11/27 12:22:18;;;;;;;0.60;0.60;;;;;;;;;;1808278;79;26316;-60
2022/11/27 12:25:05;;;;;;;0.70;0.70;;;;;;;;;;1791296;79;26938;-59
2022/11/27 12:27:50;;;;;;;0.50;0.50;;;;;;;;;;1787035;79;26280;-59
2022/11/27 12:30:19;;;;;;;0.50;0.50;;;;;;;;;;1781767;79;26261;-61
2022/11/27 12:33:03;;;;;;;0.70;0.70;;;;;;;;;;1801212;79;26805;-59
2022/11/27 12:35:35;;;;;;;0.53;0.53;;;;;;;;;;1733209;81;26852;-60
2022/11/27 12:38:06;;;;;;;0.60;0.60;;;;;;;;;;1770576;79;26280;-60
2022/11/27 12:40:44;;;;;;;0.40;0.40;;;;;;;;;;1782668;79;26304;-60
2022/11/27 12:43:28;;;;;;;0.57;0.57;;;;;;;;;;1809891;79;26316;-59
2022/11/27 12:46:00;;;;;;;0.50;0.50;;;;;;;;;;1788668;79;26271;-59
2022/11/27 12:48:29;;;;;;;0.57;0.57;;;;;;;;;;1782531;79;26284;-60
2022/11/27 12:50:58;;;;;;;0.57;0.57;;;;;;;;;;1777313;79;26321;-59
2022/11/27 12:53:27;;;;;;;0.50;0.50;;;;;;;;;;1782303;79;26332;-60
2022/11/27 12:56:04;;;;;;;0.40;0.40;;;;;;;;;;1782619;79;26303;-60
2022/11/27 12:58:33;;;;;;;0.60;0.60;;;;;;;;;;1765437;79;26298;-59
2022/11/27 13:01:01;;;;;;;0.60;0.60;;;;;;;;;;1783354;79;27119;-60
2022/11/27 13:03:30;;;;;;;0.50;0.50;;;;;;;;;;1776395;79;26725;-59
2022/11/27 13:05:59;;;;;;;0.50;0.50;;;;;;;;;;1782163;78;26321;-60
2022/11/27 13:08:28;;;;;;;0.60;0.60;;;;;;;;;;1782076;79;26272;-59
2022/11/27 13:10:57;;;;;;;0.60;0.60;;;;;;;;;;1781265;79;26269;-60
2022/11/27 13:13:27;;;;;;;0.60;0.60;;;;;;;;;;1776200;79;26808;-60
2022/11/27 13:16:17;;;;;;;0.60;0.60;;;;;;;;;;1757084;79;26307;-60
2022/11/27 13:18:53;;;;;;;0.50;0.50;;;;;;;;;;1772039;79;26341;-60
2022/11/27 13:21:22;;;;;;;0.50;0.50;;;;;;;;;;1790833;79;26320;-60
2022/11/27 13:23:50;;;;;;;0.57;0.57;;;;;;;;;;1779949;79;26823;-60
2022/11/27 13:26:31;;;;;;;0.50;0.50;;;;;;;;;;1773568;79;26332;-59
2022/11/27 13:29:18;;;;;;;0.50;0.50;;;;;;;;;;1753408;79;26739;-61
2022/11/27 13:31:47;;;;;;;0.70;0.70;;;;;;;;;;1762998;79;26285;-60
2022/11/27 13:34:15;;;;;;;0.50;0.50;;;;;;;;;;1778729;79;26265;-60
2022/11/27 13:36:44;;;;;;;0.50;0.50;;;;;;;;;;1769828;79;26375;-59
2022/11/27 13:39:22;;;;;;;0.57;0.57;;;;;;;;;;1763890;79;26300;-59
2022/11/27 13:41:51;;;;;;;0.50;0.50;;;;;;;;;;1772551;79;26224;-60
2022/11/27 13:44:20;;;;;;;0.57;0.57;;;;;;;;;;1769445;79;26336;-61
2022/11/27 13:46:48;;;;;;;0.60;0.60;;;;;;;;;;1779953;79;26286;-60
2022/11/27 13:49:17;;;;;;;0.57;0.57;;;;;;;;;;1763897;78;26340;-59
2022/11/27 13:51:45;;;;;;;0.60;0.60;;;;;;;;;;1780042;79;26289;-60
2022/11/27 13:54:14;;;;;;;0.50;0.50;;;;;;;;;;1778996;79;26591;-60
2022/11/27 13:56:42;;;;;;;0.60;0.60;;;;;;;;;;1773404;79;26346;-61
2022/11/27 13:59:22;;;;;;;0.62;0.62;;;;;;;;;;1769024;79;26323;-60
2022/11/27 14:01:57;;;;;;;0.70;0.70;;;;;;;;;;1766116;79;26300;-61
2022/11/27 14:04:25;;;;;;;0.80;0.80;;;;;;;;;;1772091;79;26288;-60
2022/11/27 14:07:06;;;;;;;0.62;0.62;;;;;;;;;;1772603;79;26222;-59
2022/11/27 14:09:41;;;;;;;1.37;0.60;;;;;;;;;;1760338;79;26734;-60
2022/11/27 14:12:16;;;;;;;0.60;0.60;;;;;;;;;;1771154;79;26285;-60
2022/11/27 14:14:45;;;;;;;0.50;0.50;;;;;;;;;;1768297;79;26336;-59
2022/11/27 14:17:22;;;;;;;0.70;0.70;;;;;;;;;;1768059;79;26276;-60
2022/11/27 14:19:51;;;;;;;0.80;0.80;;;;;;;;;;1780325;79;26328;-59
2022/11/27 14:22:35;;;;;;;0.70;0.70;;;;;;;;;;1797949;78;26282;-60
2022/11/27 14:25:04;;;;;;;0.68;0.68;;;;;;;;;;1783172;79;27909;-61
2022/11/27 14:27:33;;;;;;;0.70;0.70;;;;;;;;;;1784633;79;26841;-60
2022/11/27 14:30:02;;;;;;;0.78;0.78;;;;;;;;;;1779920;79;26854;-60
2022/11/27 14:32:30;;;;;;;0.70;0.70;;;;;;;;;;1805727;78;27241;-60
2022/11/27 14:34:58;;;;;;;0.72;0.72;;;;;;;;;;1775473;79;26377;-60
2022/11/27 14:37:27;;;;;;;0.70;0.70;;;;;;;;;;1787200;79;26283;-60
2022/11/27 14:39:54;;;;;;;0.70;0.70;;;;;;;;;;1779316;79;26309;-59
2022/11/27 14:42:23;;;;;;;0.80;0.80;;;;;;;;;;1782522;79;26296;-59
2022/11/27 14:45:09;;;;;;;0.62;0.62;;;;;;;;;;1781208;79;26296;-60
2022/11/27 14:47:38;;;;;;;0.70;0.70;;;;;;;;;;1779362;79;26856;-60
2022/11/27 14:50:06;;;;;;;0.60;0.60;;;;;;;;;;1780501;79;26347;-60
2022/11/27 14:52:33;;;;;;;0.70;0.70;;;;;;;;;;1785418;79;26360;-60
2022/11/27 14:55:01;;;;;;;0.70;0.70;;;;;;;;;;1789405;79;26329;-61
2022/11/27 14:57:29;;;;;;;0.57;0.57;;;;;;;;;;1785070;79;26329;-61
2022/11/27 15:00:17;;;;;;;0.72;0.60;;;;;;;;;;1767601;79;26342;-62